Time;durP1;ratioP1;P1;durP2;ratioP2;P2;SDS_P1;SDS_P2;PMS_P1;PMS_P2;Temp;Humidity;BMP_temperature;BMP_pressure;BME280_temperature;BME280_humidity;BME280_pressure;Samples;Min_cycle;Max_cycle;Signal;HPM_P1;HPM_P2
2023/05/19 00:00:14;;;;;;;11.02;5.93;;;8.60;99.90;;;;;;5049664;28;20032;-67
2023/05/19 00:02:42;;;;;;;10.27;6.47;;;8.60;99.90;;;;;;5053183;28;20036;-68
2023/05/19 00:05:09;;;;;;;10.38;6.35;;;8.60;99.90;;;;;;5054946;28;20032;-68
2023/05/19 00:07:37;;;;;;;7.22;5.43;;;8.50;99.90;;;;;;5044476;28;20021;-68
2023/05/19 00:10:03;;;;;;;9.75;5.50;;;8.60;99.90;;;;;;5019969;28;20048;-67
2023/05/19 00:12:29;;;;;;;12.40;5.68;;;8.50;99.90;;;;;;5035851;28;20268;-67
2023/05/19 00:14:55;;;;;;;10.27;6.20;;;8.50;99.90;;;;;;5058601;28;20112;-67
2023/05/19 00:17:21;;;;;;;12.88;6.03;;;8.50;99.90;;;;;;5026468;28;20537;-68
2023/05/19 00:19:46;;;;;;;10.30;5.50;;;8.50;99.90;;;;;;5055472;28;20032;-68
2023/05/19 00:22:12;;;;;;;8.27;5.40;;;8.40;99.90;;;;;;5049109;28;20155;-70
2023/05/19 00:24:38;;;;;;;11.13;5.93;;;8.40;99.90;;;;;;5038575;28;20071;-69
2023/05/19 00:27:04;;;;;;;11.35;6.70;;;8.30;99.90;;;;;;5035017;28;20542;-67
2023/05/19 00:29:29;;;;;;;11.18;6.22;;;8.30;99.90;;;;;;5053083;28;20538;-70
2023/05/19 00:31:55;;;;;;;9.68;5.53;;;8.30;99.90;;;;;;5042298;28;20532;-70
2023/05/19 00:34:21;;;;;;;10.23;6.43;;;8.20;99.90;;;;;;5055267;28;20025;-70
2023/05/19 00:36:46;;;;;;;12.88;6.43;;;8.10;99.90;;;;;;5038582;28;20028;-70
2023/05/19 00:39:12;;;;;;;9.85;5.25;;;8.10;99.90;;;;;;5044234;28;20075;-70
2023/05/19 00:41:38;;;;;;;10.05;5.95;;;8.00;99.90;;;;;;5031045;28;20040;-70
2023/05/19 00:44:04;;;;;;;8.77;5.65;;;8.00;99.90;;;;;;5039912;28;20025;-69
2023/05/19 00:46:29;;;;;;;10.63;6.03;;;8.00;99.90;;;;;;5041301;28;20508;-70
2023/05/19 00:48:55;;;;;;;9.60;6.30;;;8.00;99.90;;;;;;5040934;28;20483;-70
2023/05/19 00:51:22;;;;;;;13.27;7.28;;;8.10;99.90;;;;;;5042031;28;20036;-70
2023/05/19 00:53:50;;;;;;;10.57;7.00;;;8.00;99.90;;;;;;5021639;28;20025;-70
2023/05/19 00:56:17;;;;;;;12.65;6.82;;;8.10;99.90;;;;;;5027834;28;20087;-69
2023/05/19 00:58:44;;;;;;;8.32;6.40;;;8.00;99.90;;;;;;5029450;28;20036;-70
2023/05/19 01:01:13;;;;;;;14.43;6.05;;;8.10;99.90;;;;;;5026744;28;20492;-69
2023/05/19 01:03:39;;;;;;;9.68;5.75;;;8.00;99.90;;;;;;5051305;28;20036;-70
2023/05/19 01:06:05;;;;;;;8.27;5.90;;;8.00;99.90;;;;;;5046477;28;20029;-69
2023/05/19 01:08:32;;;;;;;9.88;5.57;;;8.00;99.90;;;;;;5032038;28;20074;-69
2023/05/19 01:10:58;;;;;;;12.48;6.30;;;8.00;99.90;;;;;;5042109;28;20068;-70
2023/05/19 01:13:26;;;;;;;10.55;6.43;;;7.90;99.90;;;;;;5055035;28;20048;-70
2023/05/19 01:16:17;;;;;;;9.70;6.05;;;7.80;99.90;;;;;;5039936;28;21033;-70
2023/05/19 01:18:43;;;;;;;11.18;5.97;;;7.90;99.90;;;;;;5039735;28;20120;-69
2023/05/19 01:21:22;;;;;;;11.95;6.38;;;7.80;99.90;;;;;;5048843;28;20328;-70
2023/05/19 01:24:00;;;;;;;9.98;5.80;;;7.80;99.90;;;;;;5045923;28;20024;-69
2023/05/19 01:26:44;;;;;;;9.15;5.60;;;7.80;99.90;;;;;;5055383;28;20426;-70
2023/05/19 01:29:38;;;;;;;8.20;5.32;;;7.70;99.90;;;;;;5050287;28;20032;-69
2023/05/19 01:32:05;;;;;;;10.38;5.38;;;7.70;99.90;;;;;;5026242;28;20079;-69
2023/05/19 01:34:33;;;;;;;9.90;5.93;;;7.70;99.90;;;;;;5046271;28;20584;-70
2023/05/19 01:37:00;;;;;;;11.23;6.22;;;7.70;99.90;;;;;;5044510;28;20032;-69
2023/05/19 01:39:27;;;;;;;12.20;5.95;;;7.70;99.90;;;;;;5042796;28;20033;-71
2023/05/19 01:41:53;;;;;;;14.63;6.38;;;7.70;99.90;;;;;;5056841;28;20189;-70
2023/05/19 01:44:21;;;;;;;11.65;5.78;;;7.70;99.90;;;;;;5057038;28;20028;-70
2023/05/19 01:46:47;;;;;;;11.90;6.43;;;7.70;99.90;;;;;;5022155;28;20061;-68
2023/05/19 01:49:13;;;;;;;9.55;5.70;;;7.70;99.90;;;;;;5044598;28;20029;-70
2023/05/19 01:51:40;;;;;;;8.80;5.32;;;7.70;99.90;;;;;;5052391;28;20522;-68
2023/05/19 01:54:05;;;;;;;10.43;5.97;;;7.70;99.90;;;;;;5043776;28;20119;-67
2023/05/19 01:56:56;;;;;;;12.15;5.63;;;7.70;99.90;;;;;;5045795;28;20107;-69
2023/05/19 01:59:53;;;;;;;13.03;6.77;;;7.70;99.90;;;;;;5041501;28;20029;-67
2023/05/19 02:02:37;;;;;;;9.75;5.75;;;7.70;99.90;;;;;;5040343;28;20032;-69
2023/05/19 02:05:12;;;;;;;8.60;6.13;;;7.70;99.90;;;;;;5046560;28;20502;-68
2023/05/19 02:07:48;;;;;;;9.10;6.05;;;7.60;99.90;;;;;;5045961;28;20036;-69
2023/05/19 02:10:26;;;;;;;13.68;5.95;;;7.60;99.90;;;;;;5049980;28;20368;-68
2023/05/19 02:12:57;;;;;;;10.63;5.88;;;7.60;99.90;;;;;;5047815;28;20017;-68
2023/05/19 02:15:33;;;;;;;9.25;5.78;;;7.60;99.90;;;;;;5044291;28;20032;-68
2023/05/19 02:18:03;;;;;;;13.75;5.90;;;7.60;99.90;;;;;;5048031;28;20032;-68
2023/05/19 02:20:29;;;;;;;12.35;5.78;;;7.60;99.90;;;;;;5048977;28;20028;-68
2023/05/19 02:22:55;;;;;;;8.90;5.38;;;7.50;99.90;;;;;;5029265;28;20074;-68
2023/05/19 02:25:22;;;;;;;9.27;5.35;;;7.50;99.90;;;;;;5052404;28;20441;-68
2023/05/19 02:27:48;;;;;;;12.68;5.85;;;7.50;99.90;;;;;;5025125;28;20021;-68
2023/05/19 02:30:13;;;;;;;10.27;5.85;;;7.50;99.90;;;;;;5053352;28;20095;-68
2023/05/19 02:32:39;;;;;;;8.95;5.78;;;7.50;99.90;;;;;;5055242;28;20237;-69
2023/05/19 02:35:05;;;;;;;8.55;5.97;;;7.40;99.90;;;;;;5030242;28;20074;-69
2023/05/19 02:37:31;;;;;;;10.45;6.13;;;7.50;99.90;;;;;;5055278;28;20395;-68
2023/05/19 02:39:57;;;;;;;9.32;5.68;;;7.50;99.90;;;;;;5036490;28;20087;-68
2023/05/19 02:42:22;;;;;;;13.50;6.25;;;7.50;99.90;;;;;;5067837;28;20436;-68
2023/05/19 02:44:48;;;;;;;10.82;6.07;;;7.50;99.90;;;;;;5054292;28;20048;-68
2023/05/19 02:47:14;;;;;;;13.88;5.50;;;7.50;99.90;;;;;;5057113;28;20028;-68
2023/05/19 02:49:41;;;;;;;11.02;5.90;;;7.50;99.90;;;;;;5058122;28;20079;-68
2023/05/19 02:52:07;;;;;;;8.07;5.57;;;7.40;99.90;;;;;;5054895;28;20040;-69
2023/05/19 02:54:33;;;;;;;12.77;5.75;;;7.40;99.90;;;;;;5056551;28;20031;-69
2023/05/19 02:57:00;;;;;;;8.90;5.40;;;7.40;99.90;;;;;;5048644;28;20114;-68
2023/05/19 02:59:25;;;;;;;10.02;4.90;;;7.30;99.90;;;;;;5054731;28;20622;-68
2023/05/19 03:01:56;;;;;;;7.72;4.88;;;7.30;99.90;;;;;;5051233;28;20188;-68
2023/05/19 03:04:22;;;;;;;6.55;4.95;;;7.20;99.90;;;;;;5054337;28;20284;-69
2023/05/19 03:06:48;;;;;;;7.40;5.28;;;7.10;99.90;;;;;;5049788;28;20060;-69
2023/05/19 03:09:14;;;;;;;9.63;5.25;;;7.10;99.90;;;;;;5039828;28;20369;-68
2023/05/19 03:11:39;;;;;;;10.80;5.25;;;7.10;99.90;;;;;;5055808;28;20758;-68
2023/05/19 03:14:05;;;;;;;8.15;4.53;;;7.00;99.90;;;;;;5055718;28;20025;-68
2023/05/19 03:16:31;;;;;;;7.43;4.40;;;6.90;99.90;;;;;;5032011;28;20044;-69
2023/05/19 03:18:57;;;;;;;10.52;4.75;;;6.80;99.90;;;;;;5036629;28;20598;-68
2023/05/19 03:21:22;;;;;;;6.60;4.22;;;6.80;99.90;;;;;;5044822;28;20103;-68
2023/05/19 03:23:48;;;;;;;7.40;5.32;;;6.80;99.90;;;;;;5037322;28;20047;-70
2023/05/19 03:26:14;;;;;;;8.13;4.78;;;6.70;99.90;;;;;;5050471;28;20025;-68
2023/05/19 03:28:39;;;;;;;10.75;5.65;;;6.70;99.90;;;;;;5057103;28;20462;-71
2023/05/19 03:31:05;;;;;;;7.65;4.85;;;6.70;99.90;;;;;;5056466;28;20045;-67
2023/05/19 03:33:31;;;;;;;11.07;5.57;;;6.70;99.90;;;;;;5048756;28;20024;-69
2023/05/19 03:35:56;;;;;;;10.18;5.47;;;6.70;99.90;;;;;;5057526;28;20033;-69
2023/05/19 03:38:22;;;;;;;9.02;4.88;;;6.60;99.90;;;;;;5045572;28;20465;-69
2023/05/19 03:40:48;;;;;;;7.75;4.93;;;6.70;99.90;;;;;;5055454;28;20032;-69
2023/05/19 03:43:14;;;;;;;9.93;5.15;;;6.60;99.90;;;;;;5063675;28;20056;-69
2023/05/19 03:45:40;;;;;;;10.93;4.93;;;6.60;99.90;;;;;;5053745;28;20050;-69
2023/05/19 03:48:06;;;;;;;8.80;5.20;;;6.60;99.90;;;;;;5054983;28;20135;-69
2023/05/19 03:50:32;;;;;;;11.40;5.03;;;6.60;99.90;;;;;;5056085;28;20071;-69
2023/05/19 03:52:59;;;;;;;10.35;5.80;;;6.70;99.90;;;;;;5043469;28;20039;-69
2023/05/19 03:55:25;;;;;;;10.55;5.18;;;6.70;99.90;;;;;;5031967;28;20083;-69
2023/05/19 03:57:53;;;;;;;9.00;5.97;;;6.80;99.90;;;;;;5032839;28;20552;-69
2023/05/19 04:00:19;;;;;;;12.35;6.13;;;6.80;99.90;;;;;;5050559;28;20032;-70
2023/05/19 04:02:45;;;;;;;10.15;5.75;;;6.90;99.90;;;;;;5047108;28;20496;-70
2023/05/19 04:05:10;;;;;;;9.23;5.20;;;6.90;99.90;;;;;;5051130;28;20219;-70
2023/05/19 04:07:36;;;;;;;9.25;4.65;;;6.90;99.90;;;;;;5045730;28;20269;-69
2023/05/19 04:10:05;;;;;;;10.77;5.32;;;6.90;99.90;;;;;;5029637;28;20106;-70
2023/05/19 04:12:31;;;;;;;9.35;4.70;;;7.00;99.90;;;;;;5058966;28;20864;-69
2023/05/19 04:14:57;;;;;;;7.80;4.65;;;6.90;99.90;;;;;;5049631;28;20476;-69
2023/05/19 04:17:25;;;;;;;7.72;4.07;;;6.90;99.90;;;;;;5047135;28;20039;-69
2023/05/19 04:19:51;;;;;;;9.07;5.05;;;6.80;99.90;;;;;;5020770;28;20064;-69
2023/05/19 04:22:17;;;;;;;8.43;4.50;;;6.90;99.90;;;;;;5052677;28;20044;-69
2023/05/19 04:24:43;;;;;;;8.98;4.70;;;6.90;99.90;;;;;;5049418;28;20020;-69
2023/05/19 04:27:10;;;;;;;8.77;5.05;;;7.00;99.90;;;;;;5035118;28;20111;-70
2023/05/19 04:29:37;;;;;;;8.73;4.88;;;7.00;99.90;;;;;;5044538;28;20028;-70
2023/05/19 04:32:06;;;;;;;10.75;4.72;;;7.00;99.90;;;;;;5050791;28;20459;-69
2023/05/19 04:34:39;;;;;;;10.65;5.22;;;7.00;99.90;;;;;;5053383;28;20043;-69
2023/05/19 04:37:08;;;;;;;8.85;4.68;;;7.10;99.90;;;;;;5032237;28;20067;-69
2023/05/19 04:39:37;;;;;;;8.75;4.55;;;7.10;99.90;;;;;;5029709;28;20392;-69
2023/05/19 04:42:03;;;;;;;9.95;4.70;;;7.10;99.90;;;;;;5037318;28;20025;-69
2023/05/19 04:44:30;;;;;;;8.10;5.22;;;7.20;99.90;;;;;;5035669;28;20086;-69
2023/05/19 04:46:57;;;;;;;7.53;4.38;;;7.10;99.90;;;;;;5053186;28;20029;-69
2023/05/19 04:49:23;;;;;;;8.40;4.43;;;7.20;99.90;;;;;;5056116;28;20152;-69
2023/05/19 04:51:50;;;;;;;9.70;4.57;;;7.30;99.90;;;;;;5062890;28;20176;-69
2023/05/19 04:54:16;;;;;;;10.70;4.80;;;7.30;99.90;;;;;;5031175;28;20028;-69
2023/05/19 04:56:42;;;;;;;7.25;4.85;;;7.40;99.90;;;;;;5055774;28;20032;-69
2023/05/19 04:59:08;;;;;;;9.30;4.90;;;7.50;99.90;;;;;;5051098;28;20475;-69
2023/05/19 05:01:39;;;;;;;7.60;4.50;;;7.50;99.90;;;;;;5047422;28;20561;-69
2023/05/19 05:04:05;;;;;;;7.63;4.30;;;7.60;99.90;;;;;;5049149;28;20564;-69
2023/05/19 05:06:31;;;;;;;5.03;3.65;;;7.60;99.90;;;;;;5034907;28;20737;-69
2023/05/19 05:08:56;;;;;;;9.07;4.70;;;7.70;99.90;;;;;;5050533;28;20099;-69
2023/05/19 05:11:22;;;;;;;7.72;4.45;;;7.80;99.90;;;;;;5042398;28;20511;-69
2023/05/19 05:13:48;;;;;;;7.60;4.47;;;7.90;99.90;;;;;;5058316;28;20028;-69
2023/05/19 05:16:14;;;;;;;6.97;3.65;;;8.00;99.90;;;;;;5040134;28;20396;-69
2023/05/19 05:18:40;;;;;;;7.85;4.43;;;8.10;99.90;;;;;;5043428;28;20450;-70
2023/05/19 05:21:06;;;;;;;10.52;4.53;;;8.20;99.90;;;;;;5044581;28;20024;-69
2023/05/19 05:23:32;;;;;;;8.90;4.40;;;8.30;99.90;;;;;;5046091;28;20040;-69
2023/05/19 05:25:58;;;;;;;6.50;4.30;;;8.40;99.90;;;;;;5046889;28;20031;-69
2023/05/19 05:28:24;;;;;;;6.80;3.78;;;8.60;99.90;;;;;;5053541;28;20387;-69
2023/05/19 05:30:50;;;;;;;6.97;4.15;;;8.70;99.90;;;;;;5041006;28;20642;-69
2023/05/19 05:33:16;;;;;;;6.95;4.20;;;8.90;99.90;;;;;;5048432;28;20415;-69
2023/05/19 05:35:42;;;;;;;8.15;4.05;;;9.10;99.90;;;;;;5051753;28;20127;-69
2023/05/19 05:38:10;;;;;;;10.27;4.75;;;9.30;99.90;;;;;;5026364;28;20172;-68
2023/05/19 05:40:36;;;;;;;7.28;4.22;;;9.60;99.90;;;;;;5025010;28;20557;-68
2023/05/19 05:43:01;;;;;;;5.80;4.28;;;9.80;99.90;;;;;;5026881;28;20028;-68
2023/05/19 05:45:27;;;;;;;8.55;4.60;;;10.00;99.90;;;;;;5042057;28;20488;-68
2023/05/19 05:47:53;;;;;;;9.45;4.45;;;10.20;99.90;;;;;;5053562;28;20433;-69
2023/05/19 05:50:19;;;;;;;6.53;4.10;;;10.50;99.90;;;;;;5048454;28;20291;-69
2023/05/19 05:52:49;;;;;;;6.90;3.92;;;10.70;99.90;;;;;;5044722;28;20099;-69
2023/05/19 05:55:18;;;;;;;8.50;4.43;;;10.90;99.90;;;;;;5048624;28;20036;-69
2023/05/19 05:57:44;;;;;;;15.02;7.95;;;11.10;99.90;;;;;;5044925;28;20316;-69
2023/05/19 06:00:16;;;;;;;564.08;282.50;;;11.30;99.90;;;;;;5046158;28;20174;-68
2023/05/19 06:02:45;;;;;;;196.25;89.80;;;11.50;99.90;;;;;;5049655;28;20485;-69
2023/05/19 06:05:11;;;;;;;26.58;13.55;;;11.60;99.90;;;;;;4685293;28;9999811;-69
2023/05/19 06:07:37;;;;;;;13.43;5.65;;;11.70;99.90;;;;;;5026158;28;20029;-69
2023/05/19 06:10:04;;;;;;;8.20;4.15;;;11.80;99.90;;;;;;5044058;28;20067;-68
2023/05/19 06:12:29;;;;;;;6.78;4.43;;;11.90;99.90;;;;;;5036204;28;20036;-68
2023/05/19 06:14:55;;;;;;;6.07;3.42;;;12.10;99.90;;;;;;5050151;28;20016;-69
2023/05/19 06:17:21;;;;;;;6.88;3.90;;;12.10;99.90;;;;;;5049662;28;20038;-68
2023/05/19 06:19:46;;;;;;;8.00;3.90;;;12.20;99.90;;;;;;5050027;28;20028;-69
2023/05/19 06:22:12;;;;;;;11.70;4.28;;;12.40;99.90;;;;;;5049721;28;20401;-68
2023/05/19 06:24:38;;;;;;;4.97;3.75;;;12.60;99.90;;;;;;5052395;28;20043;-68
2023/05/19 06:27:03;;;;;;;8.23;4.18;;;12.70;99.90;;;;;;5029210;28;20032;-68
2023/05/19 06:29:29;;;;;;;9.02;4.22;;;12.90;99.90;;;;;;5055507;28;20043;-69
2023/05/19 06:31:55;;;;;;;10.38;4.20;;;13.00;99.90;;;;;;5050491;28;20058;-69
2023/05/19 06:34:20;;;;;;;6.10;3.70;;;13.10;99.90;;;;;;5053910;28;20051;-69
2023/05/19 06:36:46;;;;;;;8.07;4.00;;;13.20;99.90;;;;;;5056421;28;20099;-69
2023/05/19 06:39:12;;;;;;;6.07;3.50;;;13.30;99.90;;;;;;5032169;28;20040;-68
2023/05/19 06:41:37;;;;;;;8.70;4.10;;;13.40;99.90;;;;;;5054875;28;20059;-70
2023/05/19 06:44:05;;;;;;;8.65;3.90;;;13.60;99.90;;;;;;5051195;28;20028;-69
2023/05/19 06:46:30;;;;;;;7.93;4.28;;;13.70;99.90;;;;;;5040609;28;20550;-69
2023/05/19 06:48:56;;;;;;;7.13;3.80;;;13.90;99.90;;;;;;5029688;28;21461;-69
2023/05/19 06:51:22;;;;;;;6.55;3.65;;;14.10;99.90;;;;;;5040747;28;20060;-69
2023/05/19 06:53:48;;;;;;;8.57;4.50;;;14.30;99.90;;;;;;5043897;28;20107;-70
2023/05/19 06:56:14;;;;;;;8.10;3.40;;;14.50;99.90;;;;;;5039332;28;20040;-70
2023/05/19 06:58:40;;;;;;;9.07;4.40;;;14.70;99.90;;;;;;5054397;28;20501;-70
2023/05/19 07:01:06;;;;;;;10.73;4.20;;;14.50;99.90;;;;;;5055731;28;20134;-69
2023/05/19 07:03:31;;;;;;;10.80;4.47;;;14.70;99.90;;;;;;5052150;28;20044;-69
2023/05/19 07:05:57;;;;;;;10.43;4.35;;;14.70;99.90;;;;;;5029826;28;20117;-69
2023/05/19 07:08:23;;;;;;;21.63;9.23;;;14.80;99.90;;;;;;5050359;28;20039;-70
2023/05/19 07:10:48;;;;;;;12.15;3.88;;;14.90;99.90;;;;;;5056316;28;20036;-70
2023/05/19 07:13:14;;;;;;;11.05;3.78;;;14.80;98.90;;;;;;5045189;28;20342;-70
2023/05/19 07:15:40;;;;;;;7.40;3.35;;;15.00;99.90;;;;;;5046802;28;20036;-70
2023/05/19 07:18:05;;;;;;;13.35;4.05;;;15.10;99.90;;;;;;5051792;28;20024;-69
2023/05/19 07:20:31;;;;;;;11.95;4.05;;;15.30;99.70;;;;;;5048891;28;20494;-70
2023/05/19 07:22:57;;;;;;;8.98;3.83;;;15.50;98.60;;;;;;5050009;28;20044;-70
2023/05/19 07:25:22;;;;;;;8.52;3.88;;;15.70;98.30;;;;;;5054376;28;20024;-70
2023/05/19 07:27:48;;;;;;;7.50;3.70;;;15.70;98.00;;;;;;5055474;28;20113;-70
2023/05/19 07:30:13;;;;;;;8.90;3.78;;;15.70;99.00;;;;;;5043399;28;20139;-71
2023/05/19 07:32:39;;;;;;;9.20;3.83;;;15.90;97.50;;;;;;5031781;28;20037;-68
2023/05/19 07:35:05;;;;;;;9.20;3.08;;;16.10;98.50;;;;;;5057569;28;20021;-67
2023/05/19 07:37:31;;;;;;;10.82;3.95;;;16.20;99.20;;;;;;5038144;28;20234;-71
2023/05/19 07:39:57;;;;;;;10.32;4.07;;;16.40;97.20;;;;;;5051450;28;20516;-71
2023/05/19 07:42:22;;;;;;;10.07;4.00;;;16.70;96.90;;;;;;5046297;28;20029;-72
2023/05/19 07:44:48;;;;;;;9.95;4.20;;;16.90;95.80;;;;;;5061615;28;20029;-72
2023/05/19 07:47:13;;;;;;;9.25;3.55;;;17.30;93.90;;;;;;5052785;28;20048;-71
2023/05/19 07:49:39;;;;;;;8.63;3.65;;;17.90;87.30;;;;;;5033552;28;20048;-73
2023/05/19 07:52:05;;;;;;;9.00;3.33;;;18.90;69.40;;;;;;5036002;28;20522;-71
2023/05/19 07:54:31;;;;;;;12.43;3.50;;;19.50;67.60;;;;;;5053859;28;20051;-70
2023/05/19 07:56:56;;;;;;;8.85;3.17;;;19.40;58.30;;;;;;5054214;28;20039;-71
2023/05/19 07:59:23;;;;;;;8.68;3.75;;;19.20;61.80;;;;;;5057168;28;20048;-72
2023/05/19 08:01:48;;;;;;;12.98;3.50;;;18.70;65.00;;;;;;5055865;28;20096;-71
2023/05/19 08:04:14;;;;;;;9.32;3.20;;;18.50;68.90;;;;;;5047134;28;20128;-69
2023/05/19 08:06:41;;;;;;;10.60;3.38;;;18.40;76.90;;;;;;5052919;28;20118;-69
2023/05/19 08:09:07;;;;;;;6.38;3.20;;;18.50;77.30;;;;;;5050791;28;20033;-68
2023/05/19 08:11:33;;;;;;;12.15;2.97;;;18.80;82.30;;;;;;5055829;28;20044;-70
2023/05/19 08:13:58;;;;;;;8.95;3.63;;;19.00;76.30;;;;;;5039758;28;20059;-69
2023/05/19 08:16:24;;;;;;;11.60;3.80;;;19.30;68.10;;;;;;5040548;28;20400;-67
2023/05/19 08:18:50;;;;;;;8.90;3.53;;;19.30;66.10;;;;;;5055829;28;22653;-70
2023/05/19 08:21:16;;;;;;;13.25;3.80;;;19.20;73.10;;;;;;5034971;28;20534;-68
2023/05/19 08:23:41;;;;;;;11.93;3.83;;;18.60;67.40;;;;;;5026980;28;20033;-67
2023/05/19 08:26:07;;;;;;;8.70;3.53;;;19.40;76.20;;;;;;5036301;28;20021;-67
2023/05/19 08:28:33;;;;;;;9.90;3.45;;;20.30;59.60;;;;;;5043505;28;20116;-67
2023/05/19 08:30:58;;;;;;;10.00;3.15;;;21.10;57.30;;;;;;5043783;28;20143;-68
2023/05/19 08:33:24;;;;;;;10.10;3.55;;;21.70;51.50;;;;;;5021491;28;20040;-67
2023/05/19 08:35:50;;;;;;;8.55;3.42;;;21.90;46.50;;;;;;5043803;28;20134;-69
2023/05/19 08:38:15;;;;;;;10.98;3.30;;;22.40;50.40;;;;;;5042326;28;20514;-68
2023/05/19 08:40:42;;;;;;;6.47;2.92;;;23.50;46.40;;;;;;5040889;28;20397;-68
2023/05/19 08:43:10;;;;;;;9.52;3.00;;;24.30;47.10;;;;;;4700839;28;9999750;-68
2023/05/19 08:45:37;;;;;;;13.77;3.13;;;24.40;44.30;;;;;;5018774;28;20121;-68
2023/05/19 08:48:03;;;;;;;9.30;3.40;;;24.20;43.70;;;;;;5023736;28;20424;-67
2023/05/19 08:50:30;;;;;;;9.07;3.13;;;23.60;44.70;;;;;;5046779;28;20028;-68
2023/05/19 08:53:15;;;;;;;6.82;2.88;;;22.60;45.90;;;;;;5055116;28;20031;-67
2023/05/19 08:55:52;;;;;;;10.18;2.92;;;22.20;46.90;;;;;;5042087;28;20124;-68
2023/05/19 08:58:21;;;;;;;9.57;2.78;;;21.70;48.90;;;;;;5041266;28;20417;-67
2023/05/19 09:00:47;;;;;;;11.32;3.20;;;21.90;49.00;;;;;;5027665;28;20028;-68
2023/05/19 09:03:14;;;;;;;8.07;2.92;;;22.20;52.20;;;;;;5048705;28;20040;-68
2023/05/19 09:05:40;;;;;;;6.70;2.65;;;22.90;49.00;;;;;;5048056;28;20111;-67
2023/05/19 09:08:06;;;;;;;6.40;2.58;;;23.30;47.90;;;;;;5051912;28;20036;-68
2023/05/19 09:10:32;;;;;;;6.78;2.80;;;22.90;47.40;;;;;;5053981;28;20127;-67
2023/05/19 09:12:58;;;;;;;12.98;2.85;;;22.70;49.60;;;;;;5052155;28;20890;-67
2023/05/19 09:15:27;;;;;;;6.15;3.00;;;22.60;52.80;;;;;;5054018;28;20044;-68
2023/05/19 09:18:05;;;;;;;10.98;3.33;;;22.30;49.70;;;;;;5056576;28;20085;-68
2023/05/19 09:20:31;;;;;;;12.02;3.40;;;21.90;49.70;;;;;;5054807;28;20024;-68
2023/05/19 09:22:59;;;;;;;12.30;3.20;;;21.50;49.90;;;;;;5046471;28;20048;-67
2023/05/19 09:25:25;;;;;;;9.98;3.10;;;21.70;55.30;;;;;;5041174;28;20203;-67
2023/05/19 09:27:54;;;;;;;7.65;2.85;;;21.60;53.90;;;;;;5040446;28;20139;-67
2023/05/19 09:30:20;;;;;;;6.10;2.65;;;21.30;53.40;;;;;;5039578;28;20397;-68
2023/05/19 09:32:46;;;;;;;6.03;2.63;;;21.20;53.50;;;;;;5044946;28;20027;-67
2023/05/19 09:35:12;;;;;;;7.60;2.80;;;21.00;51.30;;;;;;5053028;28;20032;-68
2023/05/19 09:37:41;;;;;;;10.70;2.63;;;21.00;57.30;;;;;;5041386;28;20028;-67
2023/05/19 09:40:14;;;;;;;7.97;2.60;;;21.20;59.40;;;;;;5035887;28;20131;-67
2023/05/19 09:42:41;;;;;;;9.23;2.30;;;21.00;50.80;;;;;;5063400;28;20159;-67
2023/05/19 09:45:10;;;;;;;8.93;2.75;;;20.90;60.20;;;;;;5052277;28;20059;-68
2023/05/19 09:47:40;;;;;;;11.55;2.85;;;20.60;58.50;;;;;;5041539;28;20529;-68
2023/05/19 09:50:08;;;;;;;7.95;2.70;;;19.60;53.30;;;;;;5047634;28;20040;-68
2023/05/19 09:52:35;;;;;;;4.15;2.13;;;19.60;57.30;;;;;;5053710;28;20023;-67
2023/05/19 09:55:03;;;;;;;8.70;3.10;;;19.40;73.90;;;;;;5052020;28;20340;-67
2023/05/19 09:57:34;;;;;;;6.40;2.70;;;19.40;60.30;;;;;;5050207;28;20830;-67
2023/05/19 10:00:10;;;;;;;9.05;2.60;;;19.30;58.10;;;;;;5040556;28;20108;-69
2023/05/19 10:02:40;;;;;;;10.63;2.58;;;19.10;59.80;;;;;;5040262;28;20345;-68
2023/05/19 10:05:06;;;;;;;9.05;2.53;;;19.10;79.80;;;;;;5021856;28;20118;-67
2023/05/19 10:07:33;;;;;;;10.00;2.78;;;19.20;86.00;;;;;;5046147;28;20047;-67
2023/05/19 10:09:59;;;;;;;6.75;2.42;;;19.30;80.00;;;;;;5061384;28;20043;-67
2023/05/19 10:12:25;;;;;;;9.15;2.67;;;19.50;86.20;;;;;;5056846;28;20146;-67
2023/05/19 10:14:53;;;;;;;6.50;2.30;;;19.70;77.20;;;;;;5022826;28;20029;-68
2023/05/19 10:17:20;;;;;;;6.93;2.63;;;19.80;83.70;;;;;;5051143;28;20079;-68
2023/05/19 10:19:49;;;;;;;5.32;2.22;;;20.00;81.50;;;;;;5053759;28;20035;-68
2023/05/19 10:22:15;;;;;;;9.02;2.88;;;20.20;85.70;;;;;;5062126;28;20920;-68
2023/05/19 10:24:40;;;;;;;12.15;2.70;;;20.50;82.60;;;;;;5030005;28;20021;-68
2023/05/19 10:27:12;;;;;;;6.05;2.88;;;20.70;78.20;;;;;;5053422;28;20032;-67
2023/05/19 10:29:43;;;;;;;9.52;2.88;;;20.70;70.90;;;;;;5055772;28;20085;-68
2023/05/19 10:32:16;;;;;;;10.45;3.80;;;20.60;65.20;;;;;;5056223;28;20380;-68
2023/05/19 10:35:03;;;;;;;8.48;3.85;;;20.20;59.20;;;;;;5033980;28;20029;-67
2023/05/19 10:37:38;;;;;;;7.40;3.20;;;20.00;65.60;;;;;;5036610;28;20033;-67
2023/05/19 10:40:28;;;;;;;11.20;3.92;;;19.90;81.00;;;;;;5052936;28;20056;-68
2023/05/19 10:43:12;;;;;;;7.03;3.50;;;19.70;63.30;;;;;;5066036;28;20710;-67
2023/05/19 10:45:50;;;;;;;10.18;4.93;;;19.30;83.40;;;;;;5052239;28;20387;-68
2023/05/19 10:48:18;;;;;;;7.72;3.47;;;19.20;81.70;;;;;;5040853;28;20381;-68
2023/05/19 10:50:45;;;;;;;9.18;4.07;;;19.20;70.70;;;;;;5062367;28;20050;-69
2023/05/19 10:53:19;;;;;;;8.48;3.15;;;19.10;71.90;;;;;;5057567;28;20574;-68
2023/05/19 10:55:57;;;;;;;9.13;3.20;;;19.10;75.10;;;;;;5078865;28;20028;-69
2023/05/19 10:58:51;;;;;;;4.75;2.40;;;19.50;92.80;;;;;;5066118;28;20378;-68
2023/05/19 11:01:20;;;;;;;8.38;2.55;;;19.90;86.10;;;;;;5036405;28;20056;-68
2023/05/19 11:03:52;;;;;;;7.78;2.40;;;20.20;52.40;;;;;;5039429;28;20040;-68
2023/05/19 11:06:23;;;;;;;4.95;2.53;;;21.10;64.70;;;;;;5042158;28;20029;-68
2023/05/19 11:08:57;;;;;;;6.82;2.15;;;21.50;45.90;;;;;;5040038;28;20025;-68
2023/05/19 11:11:23;;;;;;;5.60;2.45;;;21.50;49.70;;;;;;5058411;28;20140;-68
2023/05/19 11:13:56;;;;;;;9.20;2.63;;;21.90;43.10;;;;;;5051249;28;20044;-68
2023/05/19 11:16:33;;;;;;;8.15;2.80;;;22.80;47.10;;;;;;5029485;28;20042;-68
2023/05/19 11:18:59;;;;;;;6.63;2.42;;;23.10;44.70;;;;;;5032303;28;20113;-69
2023/05/19 11:22:07;;;;;;;6.25;2.70;;;23.00;42.00;;;;;;5050124;28;20025;-69
2023/05/19 11:24:36;;;;;;;10.20;2.67;;;22.80;45.40;;;;;;4983491;28;20114;-69
2023/05/19 11:27:26;;;;;;;5.68;2.33;;;22.90;44.20;;;;;;5030050;28;20049;-71
2023/05/19 11:29:53;;;;;;;6.55;2.67;;;22.20;43.80;;;;;;5041928;28;20028;-69
2023/05/19 11:32:25;;;;;;;7.70;2.75;;;22.40;46.20;;;;;;5052704;28;20121;-69
2023/05/19 11:34:51;;;;;;;7.28;3.08;;;22.00;43.30;;;;;;5027799;28;20021;-69
2023/05/19 11:37:17;;;;;;;5.45;2.35;;;22.10;44.70;;;;;;5054931;28;20491;-69
2023/05/19 11:39:45;;;;;;;5.57;2.55;;;21.70;40.50;;;;;;5052037;28;20039;-69
2023/05/19 11:42:11;;;;;;;8.25;2.67;;;21.30;50.40;;;;;;5051470;28;20111;-69
2023/05/19 11:44:45;;;;;;;6.00;2.25;;;20.80;41.90;;;;;;5046400;28;20395;-69
2023/05/19 11:47:14;;;;;;;6.60;2.20;;;20.90;45.20;;;;;;5047410;28;20085;-69
2023/05/19 11:49:53;;;;;;;7.03;2.40;;;21.10;43.60;;;;;;5046010;28;20030;-69
2023/05/19 11:52:21;;;;;;;6.20;2.53;;;21.30;46.10;;;;;;5052253;28;21865;-68
2023/05/19 11:54:47;;;;;;;3.53;2.08;;;21.00;42.50;;;;;;5052962;28;20431;-69
2023/05/19 11:57:13;;;;;;;4.22;2.33;;;21.10;40.90;;;;;;5050392;28;20380;-69
2023/05/19 11:59:44;;;;;;;3.90;1.90;;;20.90;43.70;;;;;;5054623;28;20185;-69
2023/05/19 12:02:27;;;;;;;6.00;1.90;;;20.40;43.00;;;;;;5027095;28;20059;-69
2023/05/19 12:04:53;;;;;;;6.75;2.10;;;20.20;46.40;;;;;;5061400;28;20089;-69
2023/05/19 12:07:22;;;;;;;4.50;2.20;;;20.50;48.60;;;;;;5051592;28;20036;-69
2023/05/19 12:09:51;;;;;;;4.45;2.15;;;20.50;49.50;;;;;;5054168;28;20025;-68
2023/05/19 12:12:21;;;;;;;3.78;1.98;;;20.70;43.10;;;;;;5020906;28;20037;-69
2023/05/19 12:14:48;;;;;;;6.28;2.22;;;21.10;48.40;;;;;;5049550;28;20155;-69
2023/05/19 12:17:16;;;;;;;5.15;2.70;;;21.10;41.80;;;;;;5050771;28;20460;-69
2023/05/19 12:19:46;;;;;;;7.72;2.40;;;21.30;43.90;;;;;;5057405;28;20098;-68
2023/05/19 12:22:14;;;;;;;6.47;2.58;;;21.40;47.90;;;;;;5066984;28;20039;-70
2023/05/19 12:24:41;;;;;;;5.32;2.25;;;22.10;44.00;;;;;;4700408;28;10000545;-68
2023/05/19 12:27:12;;;;;;;3.75;2.30;;;22.50;42.80;;;;;;5024394;28;20056;-69
2023/05/19 12:29:39;;;;;;;18.17;9.52;;;23.20;47.20;;;;;;5048119;28;20028;-68
2023/05/19 12:32:06;;;;;;;4.72;2.35;;;23.70;43.30;;;;;;5050560;28;20060;-68
2023/05/19 12:34:35;;;;;;;6.30;2.90;;;23.00;36.90;;;;;;5052958;28;20396;-68
2023/05/19 12:37:02;;;;;;;8.00;2.50;;;22.80;39.40;;;;;;5031326;28;20028;-68
2023/05/19 12:39:27;;;;;;;6.53;2.92;;;22.80;42.70;;;;;;5049443;28;20055;-68
2023/05/19 12:42:03;;;;;;;6.25;2.40;;;22.50;41.80;;;;;;5043480;28;20025;-68
2023/05/19 12:44:30;;;;;;;6.55;2.63;;;22.60;42.90;;;;;;5047714;28;20037;-68
2023/05/19 12:46:57;;;;;;;36.22;20.63;;;23.00;40.20;;;;;;5047899;28;20675;-68
2023/05/19 12:49:22;;;;;;;7.85;3.00;;;23.10;43.60;;;;;;5050646;28;20529;-68
2023/05/19 12:51:54;;;;;;;7.30;3.10;;;23.00;45.10;;;;;;5045893;28;20044;-68